sensor_id;sensor_type;location;lat;lon;timestamp;P1;durP1;ratioP1;P2;durP2;ratioP2
18042;SDS011;9146;48.074;11.968;2023-05-16T00:02:10;2.90;;;2.80;;
18042;SDS011;9146;48.074;11.968;2023-05-16T00:04:37;4.93;;;3.77;;
18042;SDS011;9146;48.074;11.968;2023-05-16T00:07:05;3.30;;;3.10;;
18042;SDS011;9146;48.074;11.968;2023-05-16T00:09:32;3.20;;;3.00;;
18042;SDS011;9146;48.074;11.968;2023-05-16T00:11:59;3.53;;;3.07;;
18042;SDS011;9146;48.074;11.968;2023-05-16T00:14:26;4.33;;;3.43;;
18042;SDS011;9146;48.074;11.968;2023-05-16T00:16:53;3.40;;;3.20;;
18042;SDS011;9146;48.074;11.968;2023-05-16T00:19:23;4.53;;;3.90;;
18042;SDS011;9146;48.074;11.968;2023-05-16T00:21:51;3.67;;;3.47;;
18042;SDS011;9146;48.074;11.968;2023-05-16T00:24:18;4.10;;;3.80;;
18042;SDS011;9146;48.074;11.968;2023-05-16T00:26:45;3.80;;;3.50;;
18042;SDS011;9146;48.074;11.968;2023-05-16T00:29:12;4.70;;;3.13;;
18042;SDS011;9146;48.074;11.968;2023-05-16T00:31:39;3.97;;;3.67;;
18042;SDS011;9146;48.074;11.968;2023-05-16T00:34:06;5.17;;;3.63;;
18042;SDS011;9146;48.074;11.968;2023-05-16T00:36:34;3.70;;;3.43;;
18042;SDS011;9146;48.074;11.968;2023-05-16T00:39:01;3.67;;;3.13;;
18042;SDS011;9146;48.074;11.968;2023-05-16T00:41:28;3.33;;;3.07;;
18042;SDS011;9146;48.074;11.968;2023-05-16T00:43:55;3.33;;;3.10;;
18042;SDS011;9146;48.074;11.968;2023-05-16T00:46:22;3.57;;;3.30;;
18042;SDS011;9146;48.074;11.968;2023-05-16T00:48:49;3.50;;;3.30;;
18042;SDS011;9146;48.074;11.968;2023-05-16T00:51:16;2.93;;;2.73;;
18042;SDS011;9146;48.074;11.968;2023-05-16T00:53:44;3.23;;;3.03;;
18042;SDS011;9146;48.074;11.968;2023-05-16T00:56:11;3.83;;;3.53;;
18042;SDS011;9146;48.074;11.968;2023-05-16T00:58:38;3.97;;;3.67;;
18042;SDS011;9146;48.074;11.968;2023-05-16T01:01:05;3.10;;;2.90;;
18042;SDS011;9146;48.074;11.968;2023-05-16T01:03:32;4.00;;;3.70;;
18042;SDS011;9146;48.074;11.968;2023-05-16T01:06:00;4.10;;;3.80;;
18042;SDS011;9146;48.074;11.968;2023-05-16T01:08:27;4.30;;;3.90;;
18042;SDS011;9146;48.074;11.968;2023-05-16T01:10:59;12.60;;;4.37;;
18042;SDS011;9146;48.074;11.968;2023-05-16T01:13:35;4.33;;;3.83;;
18042;SDS011;9146;48.074;11.968;2023-05-16T01:16:12;4.77;;;4.37;;
18042;SDS011;9146;48.074;11.968;2023-05-16T01:18:50;4.90;;;3.73;;
18042;SDS011;9146;48.074;11.968;2023-05-16T01:21:25;4.40;;;4.10;;
18042;SDS011;9146;48.074;11.968;2023-05-16T01:24:03;3.90;;;3.60;;
18042;SDS011;9146;48.074;11.968;2023-05-16T01:26:40;5.03;;;4.53;;
18042;SDS011;9146;48.074;11.968;2023-05-16T01:29:08;4.77;;;4.37;;
18042;SDS011;9146;48.074;11.968;2023-05-16T01:31:35;3.90;;;3.60;;
18042;SDS011;9146;48.074;11.968;2023-05-16T01:34:02;5.10;;;4.10;;
18042;SDS011;9146;48.074;11.968;2023-05-16T01:39:14;4.30;;;3.90;;
18042;SDS011;9146;48.074;11.968;2023-05-16T01:41:50;5.10;;;3.73;;
18042;SDS011;9146;48.074;11.968;2023-05-16T01:44:28;4.83;;;4.43;;
18042;SDS011;9146;48.074;11.968;2023-05-16T01:46:58;4.07;;;3.77;;
18042;SDS011;9146;48.074;11.968;2023-05-16T01:49:30;4.53;;;4.20;;
18042;SDS011;9146;48.074;11.968;2023-05-16T01:52:03;4.93;;;4.43;;
18042;SDS011;9146;48.074;11.968;2023-05-16T01:54:34;4.87;;;4.47;;
18042;SDS011;9146;48.074;11.968;2023-05-16T01:57:05;3.63;;;3.33;;
18042;SDS011;9146;48.074;11.968;2023-05-16T01:59:33;4.03;;;3.73;;
18042;SDS011;9146;48.074;11.968;2023-05-16T02:02:01;4.33;;;4.03;;
18042;SDS011;9146;48.074;11.968;2023-05-16T02:04:31;4.93;;;4.50;;
18042;SDS011;9146;48.074;11.968;2023-05-16T02:06:58;4.47;;;4.07;;
18042;SDS011;9146;48.074;11.968;2023-05-16T02:09:26;5.17;;;4.77;;
18042;SDS011;9146;48.074;11.968;2023-05-16T02:11:52;7.73;;;3.87;;
18042;SDS011;9146;48.074;11.968;2023-05-16T02:14:21;4.03;;;3.73;;
18042;SDS011;9146;48.074;11.968;2023-05-16T02:16:49;4.20;;;3.80;;
18042;SDS011;9146;48.074;11.968;2023-05-16T02:19:16;4.00;;;3.70;;
18042;SDS011;9146;48.074;11.968;2023-05-16T02:21:43;4.83;;;4.13;;
18042;SDS011;9146;48.074;11.968;2023-05-16T02:24:10;4.63;;;4.33;;
18042;SDS011;9146;48.074;11.968;2023-05-16T02:26:37;4.27;;;3.97;;
18042;SDS011;9146;48.074;11.968;2023-05-16T02:29:04;4.77;;;4.33;;
18042;SDS011;9146;48.074;11.968;2023-05-16T02:31:32;5.07;;;4.67;;
18042;SDS011;9146;48.074;11.968;2023-05-16T02:33:59;4.43;;;3.83;;
18042;SDS011;9146;48.074;11.968;2023-05-16T02:36:27;4.03;;;3.70;;
18042;SDS011;9146;48.074;11.968;2023-05-16T02:38:54;4.77;;;4.40;;
18042;SDS011;9146;48.074;11.968;2023-05-16T02:41:21;4.77;;;4.47;;
18042;SDS011;9146;48.074;11.968;2023-05-16T02:43:48;4.50;;;4.20;;
18042;SDS011;9146;48.074;11.968;2023-05-16T02:46:21;5.33;;;4.83;;
18042;SDS011;9146;48.074;11.968;2023-05-16T02:48:51;6.00;;;5.40;;
18042;SDS011;9146;48.074;11.968;2023-05-16T02:51:18;4.97;;;4.47;;
18042;SDS011;9146;48.074;11.968;2023-05-16T02:53:46;5.30;;;4.90;;
18042;SDS011;9146;48.074;11.968;2023-05-16T02:56:13;4.90;;;4.30;;
18042;SDS011;9146;48.074;11.968;2023-05-16T02:58:40;5.73;;;5.20;;
18042;SDS011;9146;48.074;11.968;2023-05-16T03:01:07;4.43;;;4.03;;
18042;SDS011;9146;48.074;11.968;2023-05-16T03:03:34;4.80;;;4.40;;
18042;SDS011;9146;48.074;11.968;2023-05-16T03:06:03;5.57;;;5.07;;
18042;SDS011;9146;48.074;11.968;2023-05-16T03:08:30;4.97;;;4.57;;
18042;SDS011;9146;48.074;11.968;2023-05-16T03:10:57;5.27;;;4.87;;
18042;SDS011;9146;48.074;11.968;2023-05-16T03:13:23;6.03;;;5.33;;
18042;SDS011;9146;48.074;11.968;2023-05-16T03:15:50;5.67;;;5.17;;
18042;SDS011;9146;48.074;11.968;2023-05-16T03:18:17;5.70;;;5.10;;
18042;SDS011;9146;48.074;11.968;2023-05-16T03:20:45;6.10;;;5.40;;
18042;SDS011;9146;48.074;11.968;2023-05-16T03:23:13;6.50;;;5.17;;
18042;SDS011;9146;48.074;11.968;2023-05-16T03:25:40;6.40;;;5.90;;
18042;SDS011;9146;48.074;11.968;2023-05-16T03:28:07;6.40;;;5.80;;
18042;SDS011;9146;48.074;11.968;2023-05-16T03:30:34;4.83;;;4.30;;
18042;SDS011;9146;48.074;11.968;2023-05-16T03:33:01;6.13;;;5.60;;
18042;SDS011;9146;48.074;11.968;2023-05-16T03:35:28;6.00;;;5.50;;
18042;SDS011;9146;48.074;11.968;2023-05-16T03:37:56;6.20;;;5.60;;
18042;SDS011;9146;48.074;11.968;2023-05-16T03:40:25;6.27;;;5.67;;
18042;SDS011;9146;48.074;11.968;2023-05-16T03:42:52;6.43;;;5.83;;
18042;SDS011;9146;48.074;11.968;2023-05-16T03:45:19;5.30;;;4.80;;
18042;SDS011;9146;48.074;11.968;2023-05-16T03:47:47;7.40;;;6.70;;
18042;SDS011;9146;48.074;11.968;2023-05-16T03:50:14;7.30;;;5.87;;
18042;SDS011;9146;48.074;11.968;2023-05-16T03:52:41;5.50;;;5.00;;
18042;SDS011;9146;48.074;11.968;2023-05-16T03:55:09;7.67;;;5.37;;
18042;SDS011;9146;48.074;11.968;2023-05-16T03:57:39;8.60;;;6.17;;
18042;SDS011;9146;48.074;11.968;2023-05-16T04:00:07;5.47;;;4.97;;
18042;SDS011;9146;48.074;11.968;2023-05-16T04:02:36;8.10;;;7.30;;
18042;SDS011;9146;48.074;11.968;2023-05-16T04:05:05;7.47;;;6.57;;
18042;SDS011;9146;48.074;11.968;2023-05-16T04:07:33;7.23;;;6.57;;
18042;SDS011;9146;48.074;11.968;2023-05-16T04:10:00;6.47;;;5.87;;
18042;SDS011;9146;48.074;11.968;2023-05-16T04:12:27;5.93;;;5.43;;
18042;SDS011;9146;48.074;11.968;2023-05-16T04:14:55;6.13;;;5.53;;
18042;SDS011;9146;48.074;11.968;2023-05-16T04:17:22;7.33;;;6.53;;
18042;SDS011;9146;48.074;11.968;2023-05-16T04:19:49;6.40;;;5.80;;
18042;SDS011;9146;48.074;11.968;2023-05-16T04:22:16;7.03;;;6.40;;
18042;SDS011;9146;48.074;11.968;2023-05-16T04:24:43;6.80;;;6.10;;
18042;SDS011;9146;48.074;11.968;2023-05-16T04:27:09;7.70;;;6.40;;
18042;SDS011;9146;48.074;11.968;2023-05-16T04:29:36;7.03;;;6.33;;
18042;SDS011;9146;48.074;11.968;2023-05-16T04:32:06;7.33;;;6.63;;
18042;SDS011;9146;48.074;11.968;2023-05-16T04:34:33;8.03;;;7.13;;
18042;SDS011;9146;48.074;11.968;2023-05-16T04:37:01;7.90;;;7.17;;
18042;SDS011;9146;48.074;11.968;2023-05-16T04:39:29;7.20;;;6.50;;
18042;SDS011;9146;48.074;11.968;2023-05-16T04:41:56;7.40;;;5.50;;
18042;SDS011;9146;48.074;11.968;2023-05-16T04:44:24;7.80;;;7.00;;
18042;SDS011;9146;48.074;11.968;2023-05-16T04:46:51;8.33;;;7.60;;
18042;SDS011;9146;48.074;11.968;2023-05-16T04:49:19;7.90;;;7.10;;
18042;SDS011;9146;48.074;11.968;2023-05-16T04:51:47;8.10;;;7.27;;
18042;SDS011;9146;48.074;11.968;2023-05-16T04:54:14;7.23;;;6.53;;
18042;SDS011;9146;48.074;11.968;2023-05-16T04:56:41;8.20;;;7.40;;
18042;SDS011;9146;48.074;11.968;2023-05-16T04:59:09;7.60;;;6.87;;
18042;SDS011;9146;48.074;11.968;2023-05-16T05:01:35;7.97;;;7.20;;
18042;SDS011;9146;48.074;11.968;2023-05-16T05:04:03;7.37;;;6.67;;
18042;SDS011;9146;48.074;11.968;2023-05-16T05:06:32;6.70;;;6.03;;
18042;SDS011;9146;48.074;11.968;2023-05-16T05:08:58;7.63;;;5.63;;
18042;SDS011;9146;48.074;11.968;2023-05-16T05:11:25;7.63;;;6.90;;
18042;SDS011;9146;48.074;11.968;2023-05-16T05:13:52;6.37;;;5.77;;
18042;SDS011;9146;48.074;11.968;2023-05-16T05:16:19;7.20;;;6.53;;
18042;SDS011;9146;48.074;11.968;2023-05-16T05:18:46;10.17;;;7.77;;
18042;SDS011;9146;48.074;11.968;2023-05-16T05:21:17;7.90;;;6.67;;
18042;SDS011;9146;48.074;11.968;2023-05-16T05:23:45;7.80;;;7.00;;
18042;SDS011;9146;48.074;11.968;2023-05-16T05:26:13;8.90;;;6.93;;
18042;SDS011;9146;48.074;11.968;2023-05-16T05:28:40;6.37;;;5.87;;
18042;SDS011;9146;48.074;11.968;2023-05-16T05:31:07;6.70;;;6.10;;
18042;SDS011;9146;48.074;11.968;2023-05-16T05:33:34;6.53;;;5.73;;
18042;SDS011;9146;48.074;11.968;2023-05-16T05:36:01;6.97;;;6.27;;
18042;SDS011;9146;48.074;11.968;2023-05-16T05:38:29;7.87;;;6.23;;
18042;SDS011;9146;48.074;11.968;2023-05-16T05:40:58;10.17;;;6.00;;
18042;SDS011;9146;48.074;11.968;2023-05-16T05:43:25;8.00;;;5.90;;
18042;SDS011;9146;48.074;11.968;2023-05-16T05:45:52;7.60;;;6.80;;
18042;SDS011;9146;48.074;11.968;2023-05-16T05:48:19;5.50;;;4.93;;
18042;SDS011;9146;48.074;11.968;2023-05-16T05:50:46;8.40;;;7.00;;
18042;SDS011;9146;48.074;11.968;2023-05-16T05:53:13;9.83;;;6.43;;
18042;SDS011;9146;48.074;11.968;2023-05-16T05:55:39;7.37;;;6.67;;
18042;SDS011;9146;48.074;11.968;2023-05-16T05:58:08;6.07;;;5.47;;
18042;SDS011;9146;48.074;11.968;2023-05-16T06:00:35;7.43;;;6.70;;
18042;SDS011;9146;48.074;11.968;2023-05-16T06:03:02;10.30;;;7.03;;
18042;SDS011;9146;48.074;11.968;2023-05-16T06:05:29;8.43;;;7.53;;
18042;SDS011;9146;48.074;11.968;2023-05-16T06:07:57;10.50;;;8.10;;
18042;SDS011;9146;48.074;11.968;2023-05-16T06:10:24;7.90;;;7.10;;
18042;SDS011;9146;48.074;11.968;2023-05-16T06:12:51;8.27;;;7.13;;
18042;SDS011;9146;48.074;11.968;2023-05-16T06:15:19;7.87;;;7.07;;
18042;SDS011;9146;48.074;11.968;2023-05-16T06:17:46;6.87;;;6.20;;
18042;SDS011;9146;48.074;11.968;2023-05-16T06:20:13;8.97;;;6.37;;
18042;SDS011;9146;48.074;11.968;2023-05-16T06:22:40;7.80;;;7.00;;
18042;SDS011;9146;48.074;11.968;2023-05-16T06:25:08;8.30;;;7.50;;
18042;SDS011;9146;48.074;11.968;2023-05-16T06:27:35;11.20;;;7.50;;
18042;SDS011;9146;48.074;11.968;2023-05-16T06:30:02;11.37;;;7.37;;
18042;SDS011;9146;48.074;11.968;2023-05-16T06:32:31;8.30;;;7.33;;
18042;SDS011;9146;48.074;11.968;2023-05-16T06:34:58;8.70;;;7.50;;
18042;SDS011;9146;48.074;11.968;2023-05-16T06:37:25;9.40;;;8.50;;
18042;SDS011;9146;48.074;11.968;2023-05-16T06:39:52;8.60;;;7.70;;
18042;SDS011;9146;48.074;11.968;2023-05-16T06:42:19;8.57;;;7.60;;
18042;SDS011;9146;48.074;11.968;2023-05-16T06:44:46;9.73;;;8.60;;
18042;SDS011;9146;48.074;11.968;2023-05-16T06:47:13;9.20;;;7.67;;
18042;SDS011;9146;48.074;11.968;2023-05-16T06:49:41;8.40;;;7.50;;
18042;SDS011;9146;48.074;11.968;2023-05-16T06:52:08;10.40;;;9.10;;
18042;SDS011;9146;48.074;11.968;2023-05-16T06:54:35;10.73;;;8.00;;
18042;SDS011;9146;48.074;11.968;2023-05-16T06:57:02;8.57;;;7.67;;
18042;SDS011;9146;48.074;11.968;2023-05-16T06:59:32;10.40;;;8.50;;
18042;SDS011;9146;48.074;11.968;2023-05-16T07:01:59;9.47;;;8.43;;
18042;SDS011;9146;48.074;11.968;2023-05-16T07:04:26;8.43;;;6.90;;
18042;SDS011;9146;48.074;11.968;2023-05-16T07:06:55;10.23;;;9.03;;
18042;SDS011;9146;48.074;11.968;2023-05-16T07:09:22;10.37;;;8.70;;
18042;SDS011;9146;48.074;11.968;2023-05-16T07:11:48;9.10;;;8.20;;
18042;SDS011;9146;48.074;11.968;2023-05-16T07:14:15;15.83;;;9.73;;
18042;SDS011;9146;48.074;11.968;2023-05-16T07:16:42;10.53;;;7.23;;
18042;SDS011;9146;48.074;11.968;2023-05-16T07:19:09;8.40;;;7.60;;
18042;SDS011;9146;48.074;11.968;2023-05-16T07:21:37;12.27;;;10.10;;
18042;SDS011;9146;48.074;11.968;2023-05-16T07:24:05;8.60;;;7.70;;
18042;SDS011;9146;48.074;11.968;2023-05-16T07:26:32;8.97;;;8.10;;
18042;SDS011;9146;48.074;11.968;2023-05-16T07:28:59;10.73;;;8.53;;
18042;SDS011;9146;48.074;11.968;2023-05-16T07:31:28;9.23;;;8.33;;
18042;SDS011;9146;48.074;11.968;2023-05-16T07:33:55;8.80;;;7.90;;
18042;SDS011;9146;48.074;11.968;2023-05-16T07:36:22;10.23;;;8.57;;
18042;SDS011;9146;48.074;11.968;2023-05-16T07:38:49;11.30;;;8.80;;
18042;SDS011;9146;48.074;11.968;2023-05-16T07:41:17;10.73;;;9.00;;
18042;SDS011;9146;48.074;11.968;2023-05-16T07:43:44;10.47;;;8.70;;
18042;SDS011;9146;48.074;11.968;2023-05-16T07:46:11;10.77;;;7.90;;
18042;SDS011;9146;48.074;11.968;2023-05-16T07:48:38;11.03;;;9.90;;
18042;SDS011;9146;48.074;11.968;2023-05-16T07:51:05;10.73;;;8.47;;
18042;SDS011;9146;48.074;11.968;2023-05-16T07:53:32;8.00;;;7.30;;
18042;SDS011;9146;48.074;11.968;2023-05-16T07:55:58;7.90;;;7.03;;
18042;SDS011;9146;48.074;11.968;2023-05-16T07:58:27;8.90;;;7.60;;
18042;SDS011;9146;48.074;11.968;2023-05-16T08:00:54;9.07;;;7.20;;
18042;SDS011;9146;48.074;11.968;2023-05-16T08:03:21;9.17;;;8.27;;
18042;SDS011;9146;48.074;11.968;2023-05-16T08:05:48;11.10;;;8.40;;
18042;SDS011;9146;48.074;11.968;2023-05-16T08:08:15;8.20;;;7.40;;
18042;SDS011;9146;48.074;11.968;2023-05-16T08:10:42;7.97;;;7.27;;
18042;SDS011;9146;48.074;11.968;2023-05-16T08:13:09;7.23;;;6.50;;
18042;SDS011;9146;48.074;11.968;2023-05-16T08:15:38;8.87;;;7.90;;
18042;SDS011;9146;48.074;11.968;2023-05-16T08:18:05;8.10;;;7.30;;
18042;SDS011;9146;48.074;11.968;2023-05-16T08:20:38;8.13;;;7.43;;
18042;SDS011;9146;48.074;11.968;2023-05-16T08:23:06;10.53;;;9.47;;
18042;SDS011;9146;48.074;11.968;2023-05-16T08:25:33;7.27;;;6.57;;
18042;SDS011;9146;48.074;11.968;2023-05-16T08:28:00;8.23;;;7.53;;
18042;SDS011;9146;48.074;11.968;2023-05-16T08:30:27;6.87;;;6.20;;
18042;SDS011;9146;48.074;11.968;2023-05-16T08:32:55;8.57;;;7.67;;
18042;SDS011;9146;48.074;11.968;2023-05-16T08:35:22;8.83;;;8.03;;
18042;SDS011;9146;48.074;11.968;2023-05-16T08:37:49;13.50;;;7.80;;
18042;SDS011;9146;48.074;11.968;2023-05-16T08:40:16;8.83;;;6.20;;
18042;SDS011;9146;48.074;11.968;2023-05-16T08:42:44;9.50;;;6.87;;
18042;SDS011;9146;48.074;11.968;2023-05-16T08:45:11;8.20;;;7.00;;
18042;SDS011;9146;48.074;11.968;2023-05-16T08:47:38;7.63;;;7.00;;
18042;SDS011;9146;48.074;11.968;2023-05-16T08:50:09;6.60;;;6.03;;
18042;SDS011;9146;48.074;11.968;2023-05-16T08:52:36;11.67;;;6.93;;
18042;SDS011;9146;48.074;11.968;2023-05-16T08:55:05;7.00;;;6.03;;
18042;SDS011;9146;48.074;11.968;2023-05-16T08:57:34;6.53;;;5.90;;
18042;SDS011;9146;48.074;11.968;2023-05-16T09:00:02;8.50;;;7.80;;
18042;SDS011;9146;48.074;11.968;2023-05-16T09:02:36;8.53;;;7.67;;
18042;SDS011;9146;48.074;11.968;2023-05-16T09:05:04;8.53;;;7.73;;
18042;SDS011;9146;48.074;11.968;2023-05-16T09:07:34;10.17;;;9.17;;
18042;SDS011;9146;48.074;11.968;2023-05-16T09:10:02;9.10;;;8.20;;
18042;SDS011;9146;48.074;11.968;2023-05-16T09:12:30;10.20;;;8.20;;
18042;SDS011;9146;48.074;11.968;2023-05-16T09:14:58;9.57;;;8.77;;
18042;SDS011;9146;48.074;11.968;2023-05-16T09:17:28;8.27;;;7.50;;
18042;SDS011;9146;48.074;11.968;2023-05-16T09:20:07;8.40;;;7.60;;
18042;SDS011;9146;48.074;11.968;2023-05-16T09:22:36;8.50;;;7.77;;
18042;SDS011;9146;48.074;11.968;2023-05-16T09:25:04;7.70;;;7.00;;
18042;SDS011;9146;48.074;11.968;2023-05-16T09:27:31;8.90;;;7.30;;
18042;SDS011;9146;48.074;11.968;2023-05-16T09:29:58;8.90;;;8.00;;
18042;SDS011;9146;48.074;11.968;2023-05-16T09:32:25;12.10;;;9.63;;
18042;SDS011;9146;48.074;11.968;2023-05-16T09:34:53;8.50;;;7.70;;
18042;SDS011;9146;48.074;11.968;2023-05-16T09:37:22;9.80;;;8.90;;
18042;SDS011;9146;48.074;11.968;2023-05-16T09:39:52;9.23;;;8.43;;
18042;SDS011;9146;48.074;11.968;2023-05-16T09:42:20;9.40;;;8.40;;
18042;SDS011;9146;48.074;11.968;2023-05-16T09:44:47;9.83;;;8.90;;
18042;SDS011;9146;48.074;11.968;2023-05-16T09:47:15;8.00;;;7.30;;
18042;SDS011;9146;48.074;11.968;2023-05-16T09:49:43;8.57;;;7.77;;
18042;SDS011;9146;48.074;11.968;2023-05-16T09:52:11;9.57;;;8.67;;
18042;SDS011;9146;48.074;11.968;2023-05-16T09:54:38;10.13;;;8.20;;
18042;SDS011;9146;48.074;11.968;2023-05-16T09:57:07;9.43;;;8.53;;
18042;SDS011;9146;48.074;11.968;2023-05-16T09:59:34;10.77;;;9.73;;
18042;SDS011;9146;48.074;11.968;2023-05-16T10:02:02;8.70;;;7.90;;
18042;SDS011;9146;48.074;11.968;2023-05-16T10:04:31;8.27;;;7.50;;
18042;SDS011;9146;48.074;11.968;2023-05-16T10:07:00;11.77;;;10.73;;
18042;SDS011;9146;48.074;11.968;2023-05-16T10:09:28;10.70;;;9.70;;
18042;SDS011;9146;48.074;11.968;2023-05-16T10:11:57;11.60;;;10.47;;
18042;SDS011;9146;48.074;11.968;2023-05-16T10:14:29;11.20;;;9.13;;
18042;SDS011;9146;48.074;11.968;2023-05-16T10:17:00;8.93;;;8.13;;
18042;SDS011;9146;48.074;11.968;2023-05-16T10:19:29;10.53;;;9.53;;
18042;SDS011;9146;48.074;11.968;2023-05-16T10:21:59;10.20;;;8.87;;
18042;SDS011;9146;48.074;11.968;2023-05-16T10:24:30;11.20;;;10.10;;
18042;SDS011;9146;48.074;11.968;2023-05-16T10:27:09;9.10;;;8.30;;
18042;SDS011;9146;48.074;11.968;2023-05-16T10:29:37;11.90;;;10.60;;
18042;SDS011;9146;48.074;11.968;2023-05-16T10:32:05;13.70;;;10.20;;
18042;SDS011;9146;48.074;11.968;2023-05-16T10:34:34;10.43;;;9.40;;
18042;SDS011;9146;48.074;11.968;2023-05-16T10:37:01;9.87;;;9.00;;
18042;SDS011;9146;48.074;11.968;2023-05-16T10:39:30;9.70;;;8.77;;
18042;SDS011;9146;48.074;11.968;2023-05-16T10:41:58;10.30;;;8.40;;
18042;SDS011;9146;48.074;11.968;2023-05-16T10:44:25;10.00;;;9.13;;
18042;SDS011;9146;48.074;11.968;2023-05-16T10:46:59;11.20;;;10.10;;
18042;SDS011;9146;48.074;11.968;2023-05-16T10:49:29;12.37;;;9.20;;
18042;SDS011;9146;48.074;11.968;2023-05-16T10:52:03;10.33;;;9.00;;
18042;SDS011;9146;48.074;11.968;2023-05-16T10:54:32;11.83;;;10.73;;
18042;SDS011;9146;48.074;11.968;2023-05-16T10:57:05;10.30;;;9.30;;
18042;SDS011;9146;48.074;11.968;2023-05-16T10:59:39;13.83;;;11.10;;
18042;SDS011;9146;48.074;11.968;2023-05-16T11:02:22;12.63;;;11.40;;
18042;SDS011;9146;48.074;11.968;2023-05-16T11:04:50;13.93;;;12.73;;
18042;SDS011;9146;48.074;11.968;2023-05-16T11:07:18;12.60;;;11.27;;
18042;SDS011;9146;48.074;11.968;2023-05-16T11:10:04;13.43;;;12.03;;
18042;SDS011;9146;48.074;11.968;2023-05-16T11:12:42;13.60;;;12.30;;
18042;SDS011;9146;48.074;11.968;2023-05-16T11:15:18;11.87;;;10.77;;
18042;SDS011;9146;48.074;11.968;2023-05-16T11:17:55;14.00;;;12.60;;
18042;SDS011;9146;48.074;11.968;2023-05-16T11:20:30;15.50;;;13.60;;
18042;SDS011;9146;48.074;11.968;2023-05-16T11:23:16;13.90;;;12.50;;
18042;SDS011;9146;48.074;11.968;2023-05-16T11:25:45;18.63;;;12.70;;
18042;SDS011;9146;48.074;11.968;2023-05-16T11:28:14;16.23;;;14.53;;
18042;SDS011;9146;48.074;11.968;2023-05-16T11:30:43;16.53;;;14.93;;
18042;SDS011;9146;48.074;11.968;2023-05-16T11:33:13;17.23;;;15.60;;
18042;SDS011;9146;48.074;11.968;2023-05-16T11:35:40;17.30;;;15.40;;
18042;SDS011;9146;48.074;11.968;2023-05-16T11:38:11;18.77;;;16.87;;
18042;SDS011;9146;48.074;11.968;2023-05-16T11:40:43;22.50;;;20.23;;
18042;SDS011;9146;48.074;11.968;2023-05-16T11:43:10;23.93;;;21.37;;
18042;SDS011;9146;48.074;11.968;2023-05-16T11:45:43;25.10;;;22.23;;
18042;SDS011;9146;48.074;11.968;2023-05-16T11:48:10;21.63;;;19.30;;
18042;SDS011;9146;48.074;11.968;2023-05-16T11:50:40;24.47;;;21.17;;
18042;SDS011;9146;48.074;11.968;2023-05-16T11:53:07;26.20;;;22.70;;
18042;SDS011;9146;48.074;11.968;2023-05-16T11:55:33;27.47;;;24.00;;
18042;SDS011;9146;48.074;11.968;2023-05-16T11:58:01;25.77;;;23.07;;
18042;SDS011;9146;48.074;11.968;2023-05-16T12:00:28;25.43;;;22.10;;
18042;SDS011;9146;48.074;11.968;2023-05-16T12:02:59;24.80;;;21.03;;
18042;SDS011;9146;48.074;11.968;2023-05-16T12:05:30;24.87;;;21.87;;
18042;SDS011;9146;48.074;11.968;2023-05-16T12:07:58;22.20;;;19.10;;
18042;SDS011;9146;48.074;11.968;2023-05-16T12:10:25;22.87;;;20.53;;
18042;SDS011;9146;48.074;11.968;2023-05-16T12:12:51;27.80;;;24.80;;
18042;SDS011;9146;48.074;11.968;2023-05-16T12:15:19;30.57;;;26.50;;
18042;SDS011;9146;48.074;11.968;2023-05-16T12:17:46;28.00;;;23.37;;
18042;SDS011;9146;48.074;11.968;2023-05-16T12:20:14;31.50;;;26.17;;
18042;SDS011;9146;48.074;11.968;2023-05-16T12:22:44;30.60;;;26.00;;
18042;SDS011;9146;48.074;11.968;2023-05-16T12:25:20;28.87;;;24.17;;
18042;SDS011;9146;48.074;11.968;2023-05-16T12:27:49;27.33;;;23.20;;
18042;SDS011;9146;48.074;11.968;2023-05-16T12:30:16;32.80;;;26.20;;
18042;SDS011;9146;48.074;11.968;2023-05-16T12:32:43;40.87;;;30.20;;
18042;SDS011;9146;48.074;11.968;2023-05-16T12:35:10;39.13;;;28.43;;
18042;SDS011;9146;48.074;11.968;2023-05-16T12:37:37;45.77;;;30.20;;
18042;SDS011;9146;48.074;11.968;2023-05-16T12:40:07;37.40;;;30.80;;
18042;SDS011;9146;48.074;11.968;2023-05-16T12:42:37;38.47;;;30.07;;
18042;SDS011;9146;48.074;11.968;2023-05-16T12:45:04;38.40;;;30.10;;
18042;SDS011;9146;48.074;11.968;2023-05-16T12:47:39;40.50;;;31.63;;
18042;SDS011;9146;48.074;11.968;2023-05-16T12:50:08;47.57;;;32.57;;
18042;SDS011;9146;48.074;11.968;2023-05-16T12:52:44;35.83;;;29.00;;
18042;SDS011;9146;48.074;11.968;2023-05-16T12:55:14;33.13;;;26.90;;
18042;SDS011;9146;48.074;11.968;2023-05-16T12:57:42;35.10;;;25.57;;
18042;SDS011;9146;48.074;11.968;2023-05-16T13:00:11;27.40;;;22.87;;
18042;SDS011;9146;48.074;11.968;2023-05-16T13:02:40;27.33;;;24.40;;
18042;SDS011;9146;48.074;11.968;2023-05-16T13:05:07;23.37;;;20.70;;
18042;SDS011;9146;48.074;11.968;2023-05-16T13:07:35;23.63;;;20.23;;
18042;SDS011;9146;48.074;11.968;2023-05-16T13:10:04;22.50;;;20.10;;
18042;SDS011;9146;48.074;11.968;2023-05-16T13:12:36;24.17;;;21.37;;
18042;SDS011;9146;48.074;11.968;2023-05-16T13:15:03;21.13;;;19.00;;
18042;SDS011;9146;48.074;11.968;2023-05-16T13:17:32;23.40;;;20.90;;
18042;SDS011;9146;48.074;11.968;2023-05-16T13:19:59;21.43;;;18.93;;
18042;SDS011;9146;48.074;11.968;2023-05-16T13:22:26;23.40;;;19.57;;
18042;SDS011;9146;48.074;11.968;2023-05-16T13:24:53;23.00;;;20.60;;
18042;SDS011;9146;48.074;11.968;2023-05-16T13:27:20;27.03;;;24.20;;
18042;SDS011;9146;48.074;11.968;2023-05-16T13:29:48;21.50;;;19.20;;
18042;SDS011;9146;48.074;11.968;2023-05-16T13:32:15;23.80;;;21.30;;
18042;SDS011;9146;48.074;11.968;2023-05-16T13:34:43;23.40;;;21.07;;
18042;SDS011;9146;48.074;11.968;2023-05-16T13:37:10;22.77;;;20.40;;
18042;SDS011;9146;48.074;11.968;2023-05-16T13:39:36;33.90;;;22.17;;
18042;SDS011;9146;48.074;11.968;2023-05-16T13:42:04;24.27;;;21.70;;
18042;SDS011;9146;48.074;11.968;2023-05-16T13:44:31;21.80;;;19.37;;
18042;SDS011;9146;48.074;11.968;2023-05-16T13:46:59;23.93;;;19.80;;
18042;SDS011;9146;48.074;11.968;2023-05-16T13:49:26;23.10;;;20.30;;
18042;SDS011;9146;48.074;11.968;2023-05-16T13:51:53;20.63;;;18.57;;
18042;SDS011;9146;48.074;11.968;2023-05-16T13:54:22;24.67;;;20.87;;
18042;SDS011;9146;48.074;11.968;2023-05-16T13:56:50;23.03;;;20.60;;
18042;SDS011;9146;48.074;11.968;2023-05-16T13:59:17;22.50;;;20.27;;
18042;SDS011;9146;48.074;11.968;2023-05-16T14:01:44;23.13;;;20.80;;
18042;SDS011;9146;48.074;11.968;2023-05-16T14:04:12;27.03;;;23.57;;
18042;SDS011;9146;48.074;11.968;2023-05-16T14:06:39;24.63;;;22.00;;
18042;SDS011;9146;48.074;11.968;2023-05-16T14:09:06;25.43;;;22.73;;
18042;SDS011;9146;48.074;11.968;2023-05-16T14:11:33;24.83;;;21.90;;
18042;SDS011;9146;48.074;11.968;2023-05-16T14:14:00;25.20;;;22.20;;
18042;SDS011;9146;48.074;11.968;2023-05-16T14:16:27;25.63;;;22.83;;
18042;SDS011;9146;48.074;11.968;2023-05-16T14:18:55;26.77;;;23.80;;
18042;SDS011;9146;48.074;11.968;2023-05-16T14:21:23;23.47;;;20.97;;
18042;SDS011;9146;48.074;11.968;2023-05-16T14:23:50;12.07;;;10.90;;
18042;SDS011;9146;48.074;11.968;2023-05-16T14:26:17;10.10;;;9.10;;
18042;SDS011;9146;48.074;11.968;2023-05-16T14:28:46;12.47;;;9.00;;
18042;SDS011;9146;48.074;11.968;2023-05-16T14:31:13;10.10;;;9.10;;
18042;SDS011;9146;48.074;11.968;2023-05-16T14:33:40;12.87;;;9.87;;
18042;SDS011;9146;48.074;11.968;2023-05-16T14:36:07;10.47;;;9.47;;
18042;SDS011;9146;48.074;11.968;2023-05-16T14:38:36;11.23;;;10.13;;
18042;SDS011;9146;48.074;11.968;2023-05-16T14:41:03;11.30;;;10.20;;
18042;SDS011;9146;48.074;11.968;2023-05-16T14:43:30;12.70;;;10.50;;
18042;SDS011;9146;48.074;11.968;2023-05-16T14:45:57;17.40;;;11.03;;
18042;SDS011;9146;48.074;11.968;2023-05-16T14:48:24;13.43;;;11.83;;